createdAt,value
2018-03-26T00:01:27.415Z,28.17
2018-03-26T00:03:54.855Z,26.07
2018-03-26T00:06:22.312Z,28.17
2018-03-26T00:08:49.776Z,28.77
2018-03-26T00:11:17.233Z,30.47
2018-03-26T00:13:44.688Z,27.30
2018-03-26T00:16:12.134Z,27.90
2018-03-26T00:18:39.584Z,26.57
2018-03-26T00:21:07.036Z,28.93
2018-03-26T00:23:34.496Z,31.00
2018-03-26T00:26:01.938Z,30.97
2018-03-26T00:28:30.212Z,25.07
2018-03-26T00:30:58.430Z,28.10
2018-03-26T00:33:25.875Z,32.10
2018-03-26T00:35:53.331Z,31.10
2018-03-26T00:38:21.708Z,31.00
2018-03-26T00:40:49.172Z,33.17
2018-03-26T00:43:16.607Z,30.63
2018-03-26T00:45:44.057Z,26.80
2018-03-26T00:48:11.507Z,30.50
2018-03-26T00:50:39.728Z,34.07
2018-03-26T00:53:07.183Z,36.43
2018-03-26T00:55:34.632Z,26.80
2018-03-26T00:58:02.083Z,26.83
2018-03-26T01:00:29.527Z,28.73
2018-03-26T01:02:56.980Z,30.97
2018-03-26T01:05:24.436Z,34.47
2018-03-26T01:07:51.878Z,31.27
2018-03-26T01:10:20.095Z,31.30
2018-03-26T01:12:47.564Z,25.37
2018-03-26T01:15:15.016Z,29.83
2018-03-26T01:17:42.463Z,25.93
2018-03-26T01:20:09.919Z,29.00
2018-03-26T01:22:37.359Z,28.33
2018-03-26T01:25:04.839Z,33.73
2018-03-26T01:27:32.289Z,27.80
2018-03-26T01:29:59.734Z,27.93
2018-03-26T01:32:27.184Z,27.90
2018-03-26T01:34:54.627Z,30.20
2018-03-26T01:37:22.848Z,32.83
2018-03-26T01:39:50.299Z,31.33
2018-03-26T01:42:17.746Z,27.97
2018-03-26T01:44:45.223Z,29.97
2018-03-26T01:47:12.690Z,30.70
2018-03-26T01:49:40.136Z,30.00
2018-03-26T01:52:07.592Z,30.27
2018-03-26T01:54:35.829Z,28.80
2018-03-26T01:57:03.264Z,29.80
2018-03-26T01:59:31.484Z,27.33
2018-03-26T02:01:58.923Z,34.63
2018-03-26T02:04:26.376Z,33.27
2018-03-26T02:06:53.847Z,31.13
2018-03-26T02:09:21.292Z,33.83
2018-03-26T02:11:48.735Z,30.33
2018-03-26T02:14:16.963Z,32.43
2018-03-26T02:16:44.411Z,30.83
2018-03-26T02:19:12.315Z,30.07
2018-03-26T02:21:40.551Z,34.87
2018-03-26T02:24:07.992Z,31.70
2018-03-26T02:26:35.481Z,32.57
2018-03-26T02:29:02.891Z,31.13
2018-03-26T02:31:30.340Z,27.67
2018-03-26T02:33:57.792Z,26.40
2018-03-26T02:36:26.009Z,32.83
2018-03-26T02:38:53.480Z,27.87
2018-03-26T02:41:20.921Z,28.93
2018-03-26T02:43:48.371Z,31.10
2018-03-26T02:46:15.820Z,30.37
2018-03-26T02:48:43.264Z,28.70
2018-03-26T02:51:10.729Z,30.63
2018-03-26T02:53:38.168Z,35.07
2018-03-26T02:56:06.392Z,30.57
2018-03-26T02:58:33.840Z,32.20
2018-03-26T03:01:02.193Z,28.70
2018-03-26T03:03:30.419Z,31.57
2018-03-26T03:05:58.640Z,34.13
2018-03-26T03:08:26.074Z,30.97
2018-03-26T03:10:54.296Z,31.07
2018-03-26T03:13:21.739Z,30.77
2018-03-26T03:15:49.191Z,34.80
2018-03-26T03:18:16.637Z,31.50
2018-03-26T03:20:44.075Z,32.20
2018-03-26T03:23:12.291Z,34.10
2018-03-26T03:25:39.748Z,31.90
2018-03-26T03:28:07.194Z,30.80
2018-03-26T03:30:34.642Z,31.50
2018-03-26T03:33:02.087Z,32.87
2018-03-26T03:35:29.552Z,36.20
2018-03-26T03:37:56.996Z,31.50
2018-03-26T03:40:25.211Z,32.77
2018-03-26T03:42:52.664Z,34.87
2018-03-26T03:45:20.111Z,32.93
2018-03-26T03:47:47.575Z,30.70
2018-03-26T03:50:15.015Z,31.70
2018-03-26T03:52:42.468Z,35.10
2018-03-26T03:55:09.920Z,31.30
2018-03-26T03:57:37.773Z,38.90
2018-03-26T04:00:06.007Z,34.80
2018-03-26T04:02:33.451Z,37.80
2018-03-26T04:05:00.907Z,32.37
2018-03-26T04:07:28.354Z,34.83
2018-03-26T04:09:55.795Z,43.23
2018-03-26T04:12:23.243Z,34.90
2018-03-26T04:14:50.689Z,30.90
2018-03-26T04:17:18.924Z,35.37
2018-03-26T04:19:46.378Z,33.63
2018-03-26T04:22:13.824Z,33.23
2018-03-26T04:24:41.292Z,35.60
2018-03-26T04:27:08.772Z,35.77
2018-03-26T04:29:37.720Z,36.90
2018-03-26T04:32:05.196Z,34.90
2018-03-26T04:34:32.649Z,40.80
2018-03-26T04:37:00.100Z,39.40
2018-03-26T04:39:27.572Z,38.80
2018-03-26T04:41:55.020Z,34.43
2018-03-26T04:44:22.472Z,33.10
2018-03-26T04:46:49.924Z,35.83
2018-03-26T04:49:17.370Z,34.47
2018-03-26T04:51:44.827Z,33.40
2018-03-26T04:54:12.300Z,35.00
2018-03-26T04:56:39.743Z,32.77
2018-03-26T04:59:07.187Z,36.47
2018-03-26T05:01:34.636Z,32.63
2018-03-26T05:04:02.134Z,36.10
2018-03-26T05:06:30.319Z,37.30
2018-03-26T05:08:57.761Z,41.57
2018-03-26T05:11:25.224Z,39.00
2018-03-26T05:13:52.675Z,33.97
2018-03-26T05:16:20.138Z,34.00
2018-03-26T05:18:47.595Z,34.43
2018-03-26T05:21:15.039Z,35.30
2018-03-26T05:23:42.491Z,28.40
2018-03-26T05:26:09.991Z,34.40
2018-03-26T05:28:37.388Z,35.10
2018-03-26T05:31:04.894Z,35.40
2018-03-26T05:33:32.280Z,33.57
2018-03-26T05:36:00.497Z,33.70
2018-03-26T05:38:27.944Z,35.77
2018-03-26T05:40:55.403Z,33.70
2018-03-26T05:43:22.857Z,31.10
2018-03-26T05:45:50.291Z,33.53
2018-03-26T05:48:17.748Z,37.67
2018-03-26T05:50:45.960Z,37.57
2018-03-26T05:53:14.323Z,37.03
2018-03-26T05:55:41.768Z,33.40
2018-03-26T05:58:09.215Z,37.30
2018-03-26T06:00:36.680Z,34.63
2018-03-26T06:03:04.149Z,30.00
2018-03-26T06:05:31.591Z,32.83
2018-03-26T06:07:59.799Z,33.70
2018-03-26T06:10:27.242Z,33.13
2018-03-26T06:12:55.504Z,40.70
2018-03-26T06:15:22.943Z,34.93
2018-03-26T06:17:51.164Z,33.43
2018-03-26T06:20:18.608Z,33.60
2018-03-26T06:22:46.084Z,35.17
2018-03-26T06:25:13.523Z,33.30
2018-03-26T06:27:40.978Z,33.57
2018-03-26T06:30:08.429Z,29.73
2018-03-26T06:32:35.886Z,30.43
2018-03-26T06:35:03.351Z,31.87
2018-03-26T06:37:49.588Z,30.33
2018-03-26T06:40:17.048Z,31.33
2018-03-26T06:42:44.492Z,37.17
2018-03-26T06:45:11.936Z,31.53
2018-03-26T06:47:39.388Z,29.03
2018-03-26T06:50:06.834Z,37.67
2018-03-26T06:52:34.286Z,32.77
2018-03-26T06:55:01.726Z,35.03
2018-03-26T06:57:29.172Z,31.43
2018-03-26T06:59:57.382Z,30.90
2018-03-26T07:02:24.849Z,32.83
2018-03-26T07:04:52.280Z,34.27
2018-03-26T07:07:19.728Z,28.83
2018-03-26T07:09:47.163Z,31.23
2018-03-26T07:12:15.381Z,38.17
2018-03-26T07:14:42.835Z,32.23
2018-03-26T07:17:11.195Z,30.97
2018-03-26T07:19:38.661Z,31.60
2018-03-26T07:22:06.117Z,34.00
2018-03-26T07:24:33.564Z,30.57
2018-03-26T07:27:01.011Z,32.27
2018-03-26T07:29:28.451Z,29.40
2018-03-26T07:31:56.668Z,31.30
2018-03-26T07:34:24.125Z,30.20
2018-03-26T07:36:51.593Z,35.30
2018-03-26T07:39:19.031Z,31.87
2018-03-26T07:41:47.277Z,30.03
2018-03-26T07:44:15.489Z,28.07
2018-03-26T07:46:42.946Z,32.40
2018-03-26T07:49:10.400Z,31.60
2018-03-26T07:51:37.843Z,31.60
2018-03-26T07:54:05.347Z,28.67
2018-03-26T07:56:32.788Z,29.90
2018-03-26T07:59:00.231Z,28.97
2018-03-26T08:01:27.691Z,30.00
2018-03-26T08:03:55.145Z,33.07
2018-03-26T08:06:22.611Z,29.23
2018-03-26T08:08:50.056Z,29.63
2018-03-26T08:11:17.512Z,29.20
2018-03-26T08:13:44.981Z,31.00
2018-03-26T08:16:12.427Z,32.90
2018-03-26T08:18:39.867Z,30.13
2018-03-26T08:21:07.324Z,30.67
2018-03-26T08:23:34.772Z,28.40
2018-03-26T08:26:03.000Z,26.90
2018-03-26T08:28:30.459Z,33.03
2018-03-26T08:30:57.955Z,29.97
2018-03-26T08:33:25.375Z,32.37
2018-03-26T08:35:52.824Z,31.33
2018-03-26T08:38:20.271Z,31.20
2018-03-26T08:40:47.715Z,30.47
2018-03-26T08:43:15.179Z,33.83
2018-03-26T08:45:42.633Z,30.00
2018-03-26T08:48:10.072Z,32.80
2018-03-26T08:50:37.579Z,32.80
2018-03-26T08:53:05.060Z,32.27
2018-03-26T08:55:32.507Z,30.57
2018-03-26T08:58:00.732Z,34.97
2018-03-26T09:00:28.181Z,32.33
2018-03-26T09:02:55.632Z,33.03
2018-03-26T09:05:23.715Z,31.10
2018-03-26T09:07:51.172Z,29.23
2018-03-26T09:10:18.616Z,34.83
2018-03-26T09:12:46.060Z,31.97
2018-03-26T09:15:14.280Z,35.70
2018-03-26T09:17:41.720Z,33.97
2018-03-26T09:20:09.173Z,31.97
2018-03-26T09:22:36.630Z,30.90
2018-03-26T09:25:04.081Z,35.40
2018-03-26T09:27:31.519Z,24.87
2018-03-26T09:29:59.779Z,27.77
2018-03-26T09:32:27.995Z,30.70
2018-03-26T09:34:55.436Z,28.43
2018-03-26T09:37:22.914Z,27.80
2018-03-26T09:39:50.365Z,27.83
2018-03-26T09:42:17.803Z,28.80
2018-03-26T09:44:45.258Z,26.27
2018-03-26T09:47:13.468Z,29.80
2018-03-26T09:49:40.915Z,28.30
2018-03-26T09:52:09.200Z,34.20
2018-03-26T09:54:36.654Z,29.03
2018-03-26T09:57:04.100Z,29.00
2018-03-26T09:59:31.543Z,29.03
2018-03-26T10:01:58.984Z,30.30
2018-03-26T10:04:27.200Z,31.53
2018-03-26T10:06:54.651Z,35.10
2018-03-26T10:09:22.128Z,35.27
2018-03-26T10:11:49.572Z,36.17
2018-03-26T10:14:17.015Z,36.90
2018-03-26T10:16:44.479Z,43.43
2018-03-26T10:19:11.924Z,39.30
2018-03-26T10:21:39.385Z,43.23
2018-03-26T10:24:06.828Z,42.87
2018-03-26T10:26:34.284Z,43.97
2018-03-26T10:29:01.728Z,42.47
2018-03-26T10:31:29.942Z,38.43
2018-03-26T10:33:57.410Z,39.63
2018-03-26T10:36:24.851Z,41.97
2018-03-26T10:38:52.309Z,46.00
2018-03-26T10:41:19.782Z,45.87
2018-03-26T10:43:47.223Z,46.47
2018-03-26T10:46:14.682Z,39.53
2018-03-26T10:48:42.131Z,47.73
2018-03-26T10:51:09.579Z,46.47
2018-03-26T10:53:37.069Z,46.40
2018-03-26T10:56:04.468Z,37.30
2018-03-26T10:58:32.675Z,40.73
2018-03-26T11:01:00.119Z,44.13
2018-03-26T11:03:27.577Z,44.93
2018-03-26T11:05:55.036Z,44.53
2018-03-26T11:08:22.475Z,43.80
2018-03-26T11:10:50.733Z,40.17
2018-03-26T11:13:18.152Z,43.47
2018-03-26T11:15:45.607Z,40.57
2018-03-26T11:18:13.063Z,39.90
2018-03-26T11:20:40.523Z,45.27
2018-03-26T11:23:07.984Z,43.00
2018-03-26T11:25:35.686Z,44.57
2018-03-26T11:28:03.133Z,43.77
2018-03-26T11:30:30.576Z,46.30
2018-03-26T11:32:58.047Z,43.30
2018-03-26T11:35:25.492Z,46.57
2018-03-26T11:37:52.944Z,45.40
2018-03-26T11:40:20.396Z,43.50
2018-03-26T11:42:47.859Z,42.30
2018-03-26T11:45:15.325Z,42.47
2018-03-26T11:47:42.775Z,43.20
2018-03-26T11:50:10.231Z,41.77
2018-03-26T11:52:37.689Z,42.37
2018-03-26T11:55:05.143Z,44.17
2018-03-26T11:57:34.099Z,38.03
2018-03-26T12:00:01.566Z,40.80
2018-03-26T12:02:29.036Z,45.77
2018-03-26T12:04:56.483Z,38.27
2018-03-26T12:07:24.848Z,38.70
2018-03-26T12:09:52.304Z,35.77
2018-03-26T12:12:19.761Z,37.57
2018-03-26T12:14:47.199Z,44.60
2018-03-26T12:17:14.655Z,43.90
2018-03-26T12:20:02.980Z,42.03
2018-03-26T12:22:30.424Z,39.60
2018-03-26T12:25:10.298Z,39.47
2018-03-26T12:27:50.356Z,41.83
2018-03-26T12:30:22.085Z,37.47
2018-03-26T12:32:49.531Z,37.93
2018-03-26T12:35:28.816Z,37.37
2018-03-26T12:37:56.264Z,38.33
2018-03-26T12:40:35.592Z,36.30
2018-03-26T12:43:03.808Z,40.23
2018-03-26T12:45:43.095Z,35.10
2018-03-26T12:48:11.327Z,39.07
2018-03-26T12:50:50.727Z,38.37
2018-03-26T12:53:18.179Z,39.63
2018-03-26T12:55:46.796Z,43.17
2018-03-26T12:58:26.064Z,39.83
2018-03-26T13:01:06.220Z,42.77
2018-03-26T13:03:33.675Z,43.87
2018-03-26T13:06:01.130Z,40.70
2018-03-26T13:08:28.579Z,40.80
2018-03-26T13:10:56.814Z,36.60
2018-03-26T13:13:24.275Z,37.20
2018-03-26T13:15:51.729Z,39.37
2018-03-26T13:18:19.181Z,38.73
2018-03-26T13:20:46.643Z,34.70
2018-03-26T13:23:14.095Z,37.57
2018-03-26T13:25:41.556Z,40.40
2018-03-26T13:28:09.056Z,32.70
2018-03-26T13:30:36.460Z,40.47
2018-03-26T13:33:03.915Z,38.03
2018-03-26T13:35:31.360Z,32.43
2018-03-26T13:37:59.600Z,34.60
2018-03-26T13:40:27.101Z,33.83
2018-03-26T13:42:54.543Z,31.20
2018-03-26T13:45:22.773Z,35.23
2018-03-26T13:47:50.232Z,29.87
2018-03-26T13:50:17.680Z,36.20
2018-03-26T13:52:45.141Z,32.47
2018-03-26T13:55:12.599Z,36.67
2018-03-26T13:57:40.051Z,32.80
2018-03-26T14:00:07.515Z,31.53
2018-03-26T14:02:34.980Z,31.63
2018-03-26T14:05:02.420Z,33.00
2018-03-26T14:07:29.875Z,41.27
2018-03-26T14:10:09.288Z,38.97
2018-03-26T14:12:48.599Z,40.70
2018-03-26T14:15:28.800Z,32.70
2018-03-26T14:17:59.082Z,33.73
2018-03-26T14:20:27.288Z,36.03
2018-03-26T14:22:54.756Z,36.50
2018-03-26T14:25:22.204Z,34.17
2018-03-26T14:27:49.656Z,36.40
2018-03-26T14:30:17.118Z,26.20
2018-03-26T14:32:44.555Z,38.23
2018-03-26T14:35:40.647Z,31.90
2018-03-26T14:38:09.600Z,36.70
2018-03-26T14:40:37.076Z,36.27
2018-03-26T14:43:04.568Z,40.43
2018-03-26T14:45:31.968Z,31.13
2018-03-26T14:47:59.445Z,46.37
2018-03-26T14:50:26.892Z,46.27
2018-03-26T14:52:54.348Z,43.50
2018-03-26T14:55:21.798Z,40.50
2018-03-26T14:57:49.272Z,30.03
2018-03-26T15:00:16.708Z,42.87
2018-03-26T15:02:44.187Z,29.70
2018-03-26T15:05:11.616Z,24.20
2018-03-26T15:07:39.063Z,48.30
2018-03-26T15:10:06.532Z,43.90
2018-03-26T15:12:33.968Z,57.23
2018-03-26T15:15:01.432Z,46.13
2018-03-26T15:17:28.875Z,57.03
2018-03-26T15:19:57.088Z,43.10
2018-03-26T15:22:24.558Z,46.53
2018-03-26T15:24:51.999Z,61.30
2018-03-26T15:27:19.492Z,60.67
2018-03-26T15:29:46.944Z,60.83
2018-03-26T15:32:14.407Z,52.53
2018-03-26T15:34:41.847Z,49.17
2018-03-26T15:37:09.287Z,53.87
2018-03-26T15:39:36.743Z,44.73
2018-03-26T15:42:04.183Z,45.97
2018-03-26T15:44:31.632Z,50.17
2018-03-26T15:46:59.080Z,51.03
2018-03-26T15:49:26.523Z,54.20
2018-03-26T15:51:54.747Z,52.40
2018-03-26T15:54:22.195Z,48.57
2018-03-26T15:56:49.667Z,45.80
2018-03-26T15:59:17.111Z,46.20
2018-03-26T16:01:44.556Z,48.13
2018-03-26T16:04:12.013Z,43.70
2018-03-26T16:06:40.289Z,42.07
2018-03-26T16:09:07.740Z,46.67
2018-03-26T16:11:35.190Z,48.20
2018-03-26T16:14:02.643Z,46.57
2018-03-26T16:16:30.097Z,46.47
2018-03-26T16:18:57.543Z,44.43
2018-03-26T16:21:25.761Z,48.07
2018-03-26T16:23:53.252Z,39.57
2018-03-26T16:26:20.708Z,49.80
2018-03-26T16:28:48.921Z,44.53
2018-03-26T16:31:17.147Z,50.10
2018-03-26T16:33:44.596Z,63.67
2018-03-26T16:36:12.044Z,49.67
2018-03-26T16:38:39.506Z,46.00
2018-03-26T16:41:06.943Z,47.83
2018-03-26T16:43:34.396Z,50.30
2018-03-26T16:46:01.861Z,44.93
2018-03-26T16:48:29.304Z,45.13
2018-03-26T16:50:56.761Z,45.60
2018-03-26T16:53:24.234Z,46.73
2018-03-26T16:55:51.676Z,42.40
2018-03-26T16:58:19.111Z,53.30
2018-03-26T17:00:47.394Z,50.43
2018-03-26T17:03:15.604Z,42.07
2018-03-26T17:05:43.062Z,46.57
2018-03-26T17:08:10.503Z,43.77
2018-03-26T17:10:37.964Z,45.07
2018-03-26T17:13:05.407Z,51.90
2018-03-26T17:15:32.863Z,47.70
2018-03-26T17:18:00.321Z,48.93
2018-03-26T17:20:27.763Z,51.53
2018-03-26T17:22:55.976Z,49.83
2018-03-26T17:25:23.422Z,49.17
2018-03-26T17:27:50.883Z,42.83
2018-03-26T17:30:18.335Z,43.97
2018-03-26T17:32:45.788Z,47.10
2018-03-26T17:35:13.231Z,44.77
2018-03-26T17:37:40.680Z,54.60
2018-03-26T17:40:08.891Z,46.63
2018-03-26T17:42:36.348Z,51.60
2018-03-26T17:45:03.790Z,47.13
2018-03-26T17:47:31.260Z,46.43
2018-03-26T17:49:58.710Z,50.90
2018-03-26T17:52:26.156Z,51.17
2018-03-26T17:54:53.599Z,61.20
2018-03-26T17:57:21.067Z,61.63
2018-03-26T17:59:48.519Z,60.33
2018-03-26T18:02:15.955Z,59.07
2018-03-26T18:04:44.184Z,56.13
2018-03-26T18:07:11.632Z,61.40
2018-03-26T18:09:39.071Z,65.53
2018-03-26T18:12:06.523Z,59.33
2018-03-26T18:14:33.968Z,64.13
2018-03-26T18:17:02.196Z,52.77
2018-03-26T18:19:29.643Z,56.40
2018-03-26T18:21:57.088Z,41.57
2018-03-26T18:24:24.552Z,30.27
2018-03-26T18:26:51.990Z,25.37
2018-03-26T18:29:19.445Z,22.00
2018-03-26T18:31:46.897Z,23.80
2018-03-26T18:34:14.336Z,17.07
2018-03-26T18:36:42.578Z,15.33
2018-03-26T18:39:10.044Z,10.83
2018-03-26T18:41:37.478Z,9.23
2018-03-26T18:44:04.915Z,9.87
2018-03-26T18:46:32.369Z,8.53
2018-03-26T18:48:59.803Z,7.30
2018-03-26T18:51:27.241Z,7.57
2018-03-26T18:53:55.455Z,8.73
2018-03-26T18:56:22.896Z,12.93
2018-03-26T18:58:50.352Z,9.50
2018-03-26T19:01:18.552Z,9.90
2018-03-26T19:03:45.999Z,11.40
2018-03-26T19:06:13.468Z,9.37
2018-03-26T19:08:40.903Z,8.00
2018-03-26T19:11:08.351Z,10.57
2018-03-26T19:13:35.791Z,8.40
2018-03-26T19:16:03.992Z,7.87
2018-03-26T19:18:31.439Z,7.90
2018-03-26T19:20:58.880Z,13.60
2018-03-26T19:23:27.148Z,10.73
2018-03-26T19:25:54.548Z,11.30
2018-03-26T19:28:21.998Z,21.70
2018-03-26T19:30:49.436Z,12.17
2018-03-26T19:33:17.803Z,12.73
2018-03-26T19:35:46.024Z,10.97
2018-03-26T19:38:13.469Z,12.97
2018-03-26T19:40:40.940Z,10.13
2018-03-26T19:43:08.371Z,10.97
2018-03-26T19:45:35.836Z,10.20
2018-03-26T19:48:03.280Z,12.43
2018-03-26T19:50:30.721Z,10.23
2018-03-26T19:52:58.928Z,10.17
2018-03-26T19:55:26.384Z,13.73
2018-03-26T19:57:53.812Z,9.60
2018-03-26T20:00:22.027Z,11.10
2018-03-26T20:02:49.475Z,14.80
2018-03-26T20:05:16.960Z,9.77
2018-03-26T20:07:44.370Z,11.67
2018-03-26T20:10:11.812Z,12.90
2018-03-26T20:12:40.023Z,10.30
2018-03-26T20:15:07.463Z,11.70
2018-03-26T20:17:34.931Z,13.97
2018-03-26T20:20:02.375Z,11.90
2018-03-26T20:22:29.816Z,12.20
2018-03-26T20:24:58.041Z,16.00
2018-03-26T20:27:25.483Z,11.10
2018-03-26T20:29:52.932Z,15.30
2018-03-26T20:32:20.380Z,12.60
2018-03-26T20:34:47.828Z,22.80
2018-03-26T20:37:15.300Z,16.60
2018-03-26T20:39:42.751Z,17.33
2018-03-26T20:42:10.196Z,15.70
2018-03-26T20:44:38.399Z,18.83
2018-03-26T20:47:05.848Z,13.87
2018-03-26T20:49:33.300Z,12.10
2018-03-26T20:52:00.757Z,18.53
2018-03-26T20:54:28.188Z,13.60
2018-03-26T20:56:56.408Z,10.17
2018-03-26T20:59:23.849Z,11.50
2018-03-26T21:01:51.306Z,11.23
2018-03-26T21:04:18.747Z,9.83
2018-03-26T21:06:46.181Z,10.00
2018-03-26T21:09:14.416Z,12.47
2018-03-26T21:11:41.852Z,13.67
2018-03-26T21:14:09.644Z,9.97
2018-03-26T21:16:37.092Z,10.93
2018-03-26T21:19:04.529Z,9.27
2018-03-26T21:21:31.972Z,11.70
2018-03-26T21:23:59.410Z,9.50
2018-03-26T21:26:27.667Z,11.63
2018-03-26T21:28:55.107Z,9.60
2018-03-26T21:31:22.556Z,9.90
2018-03-26T21:33:50.004Z,12.47
2018-03-26T21:36:17.455Z,12.57
2018-03-26T21:38:44.901Z,9.20
2018-03-26T21:41:12.339Z,11.70
2018-03-26T21:43:39.800Z,10.83
2018-03-26T21:46:07.239Z,10.23
2018-03-26T21:48:35.471Z,15.27
2018-03-26T21:51:02.924Z,11.57
2018-03-26T21:53:30.364Z,10.37
2018-03-26T21:55:57.882Z,13.50
2018-03-26T21:58:26.088Z,10.73
2018-03-26T22:00:53.536Z,13.13
2018-03-26T22:03:20.983Z,11.90
2018-03-26T22:05:48.432Z,11.17
2018-03-26T22:08:16.637Z,14.53
2018-03-26T22:10:44.076Z,10.47
2018-03-26T22:13:11.529Z,11.60
2018-03-26T22:15:39.739Z,14.40
2018-03-26T22:18:07.192Z,11.03
2018-03-26T22:20:34.627Z,11.10
2018-03-26T22:23:02.072Z,12.00
2018-03-26T22:25:30.284Z,14.20
2018-03-26T22:27:57.735Z,21.93
2018-03-26T22:30:25.188Z,14.10
2018-03-26T22:32:52.648Z,13.17
2018-03-26T22:35:20.132Z,13.10
2018-03-26T22:37:47.579Z,13.67
2018-03-26T22:40:15.024Z,12.63
2018-03-26T22:42:42.528Z,13.77
2018-03-26T22:45:09.973Z,11.90
2018-03-26T22:47:37.403Z,12.60
2018-03-26T22:50:04.886Z,11.97
2018-03-26T22:52:32.316Z,12.37
2018-03-26T22:54:59.776Z,10.10
2018-03-26T22:57:27.212Z,9.80
2018-03-26T22:59:54.668Z,10.87
2018-03-26T23:02:22.127Z,10.90
2018-03-26T23:04:49.559Z,9.83
2018-03-26T23:07:17.018Z,12.80
2018-03-26T23:09:45.219Z,9.27
2018-03-26T23:12:12.676Z,9.10
2018-03-26T23:14:40.112Z,11.37
2018-03-26T23:17:07.567Z,9.00
2018-03-26T23:19:35.003Z,9.57
2018-03-26T23:22:02.442Z,9.97
2018-03-26T23:24:29.876Z,10.20
2018-03-26T23:26:57.324Z,10.30
2018-03-26T23:29:24.791Z,7.23
2018-03-26T23:31:52.229Z,9.83
2018-03-26T23:34:19.666Z,8.37
2018-03-26T23:36:47.103Z,9.90
2018-03-26T23:39:15.308Z,6.00
2018-03-26T23:41:42.756Z,6.83
2018-03-26T23:44:10.196Z,6.30
2018-03-26T23:46:38.427Z,7.00
2018-03-26T23:49:05.877Z,5.83
2018-03-26T23:51:33.313Z,6.67
2018-03-26T23:54:00.755Z,10.90
2018-03-26T23:56:28.196Z,8.10
2018-03-26T23:58:56.524Z,6.30
